IK5WWP Weather Reports


Display with metric or nautical units.
time (UTC)temp
F
wind
direction
speed
MPH
gust
MPH
rain 1hr
in
rain 24hr
in
rain mn
in
humidity
%
barometer
mb
20240619210900 75 54 1.0 4.0 0.00 0.00 0.00 59 1018.9
20240619210000 75 66 1.0 2.0 0.00 0.00 0.00 60 1018.9
20240619205100 76 68 2.0 4.0 0.00 0.00 0.00 60 1019.2
20240619204159 76 68 1.0 2.0 0.00 0.00 0.00 59 1019.1
20240619203259 76 60 2.0 2.0 0.00 0.00 0.00 58 1018.7
20240619201500 78 68 2.0 2.0 0.00 0.00 0.00 54 1017.9
20240619200559 78 68 1.0 2.0 0.00 0.00 0.00 53 1018.4
20240619195659 78 68 2.0 2.0 0.00 0.00 0.00 54 1018.1
20240619194759 79 67 2.0 2.0 0.00 0.00 0.00 53 1018.1
20240619193900 80 66 2.0 2.0 0.00 0.00 0.00 51 1017.9
20240619193000 81 64 1.0 4.0 0.00 0.00 0.00 49 1017.8
20240619192100 80 64 2.0 4.0 0.00 0.00 0.00 50 1017.6
20240619190259 79 63 1.0 2.0 0.00 0.00 0.00 55 1017.3
20240619185359 81 69 1.0 2.0 0.00 0.00 0.00 51 1017.4
20240619184459 80 69 1.0 2.0 0.00 0.00 0.00 52 1017.5
20240619183600 80 69 1.0 4.0 0.00 0.00 0.00 52 1017.2
20240619181759 80 54 1.0 6.0 0.00 0.00 0.00 56 1016.9
20240619180900 81 57 3.0 6.0 0.00 0.00 0.00 52 1016.7
20240619174200 81 66 0.0 4.0 0.00 0.00 0.00 56 1017.9
20240619173301 82 69 1.0 2.0 0.00 0.00 0.00 55 1017.9
20240619172400 82 69 0.0 2.0 0.00 0.00 0.00 49 1017.6
20240619171500 82 62 2.0 6.0 0.00 0.00 0.00 50 1017.0
20240619170600 82 69 1.0 2.0 0.00 0.00 0.00 53 1017.5
20240619165700 82 68 1.0 2.0 0.00 0.00 0.00 54 1017.6
20240619163900 82 68 1.0 2.0 0.00 0.00 0.00 56 1017.2
20240619163001 83 68 1.0 2.0 0.00 0.00 0.00 56 1017.1
20240619161201 81 68 0.0 2.0 0.00 0.00 0.00 60 1017.0
20240619160300 81 68 0.0 4.0 0.00 0.00 0.00 60 1016.9
20240619155400 82 69 0.0 2.0 0.00 0.00 0.00 58 1017.8
20240619154500 82 69 1.0 2.0 0.00 0.00 0.00 60 1017.2
20240619153600 82 69 1.0 2.0 0.00 0.00 0.00 58 1017.5
20240619151800 82 69 1.0 2.0 0.00 0.00 0.00 57 1017.4
20240619150000 85 68 0.0 2.0 0.00 0.00 0.00 52 1017.8
20240619145100 85 68 0.0 2.0 0.00 0.00 0.00 51 1017.3
20240619144200 87 68 0.0 2.0 0.00 0.00 0.00 50 1017.4
20240619143300 86 69 1.0 2.0 0.00 0.00 0.00 46 1017.5
20240619142400 87 68 1.0 2.0 0.00 0.00 0.00 44 1017.2
20240619141500 88 69 0.0 2.0 0.00 0.00 0.00 40 1017.2
20240619140600 89 69 0.0 2.0 0.00 0.00 0.00 39 1017.6
20240619135700 89 68 1.0 2.0 0.00 0.00 0.00 38 1017.7
20240619134803 90 68 0.0 2.0 0.00 0.00 0.00 36 1017.9
20240619132101 89 68 2.0 4.0 0.00 0.00 0.00 38 1018.5
20240619131200 90 68 2.0 4.0 0.00 0.00 0.00 37 1018.2
20240619130300 90 68 2.0 2.0 0.00 0.00 0.00 36 1017.7
20240619125403 92 69 0.0 2.0 0.00 0.00 0.00 34 1017.2
20240619124500 91 69 1.0 2.0 0.00 0.00 0.00 35 1017.2
20240619123600 92 69 0.0 2.0 0.00 0.00 0.00 33 1017.3
20240619122700 95 68 1.0 2.0 0.00 0.00 0.00 30 1016.9
20240619121800 97 69 1.0 2.0 0.00 0.00 0.00 30 1017.0
20240619120000 93 69 1.0 2.0 0.00 0.00 0.00 31 1016.9
20240619114200 101 68 0.0 4.0 0.00 0.00 0.00 28 1017.5
20240619113300 92 68 1.0 4.0 0.00 0.00 0.00 34 1017.2
20240619112400 91 68 2.0 4.0 0.00 0.00 0.00 35 1016.8
20240619110600 94 69 0.0 2.0 0.00 0.00 0.00 35 1017.0
20240619105700 94 69 0.0 2.0 0.00 0.00 0.00 33 1017.0
20240619104800 96 69 2.0 2.0 0.00 0.00 0.00 32 1016.8
20240619103000 91 68 0.0 2.0 0.00 0.00 0.00 38 1016.7
20240619102100 89 69 0.0 2.0 0.00 0.00 0.00 38 1016.6
20240619101200 88 69 1.0 2.0 0.00 0.00 0.00 39 1016.8
20240619100300 88 68 0.0 2.0 0.00 0.00 0.00 39 1016.6
20240619095400 88 68 1.0 2.0 0.00 0.00 0.00 37 1016.6
20240619094500 89 69 0.0 2.0 0.00 0.00 0.00 36 1016.6
20240619093601 90 69 1.0 2.0 0.00 0.00 0.00 35 1016.5
20240619092700 89 68 1.0 4.0 0.00 0.00 0.00 36 1016.5
20240619091800 90 68 1.0 2.0 0.00 0.00 0.00 37 1016.4
20240619090900 91 68 2.0 4.0 0.00 0.00 0.00 34 1016.2
20240619090000 93 68 1.0 4.0 0.00 0.00 0.00 33 1016.3
20240619085100 90 71 2.0 4.0 0.00 0.00 0.00 36 1016.0
20240619084200 93 68 2.0 4.0 0.00 0.00 0.00 33 1016.0
20240619083300 96 68 0.0 2.0 0.00 0.00 0.00 35 1015.9
20240619081502 97 69 1.0 2.0 0.00 0.00 0.00 38 1016.0
20240619080600 93 69 0.0 4.0 0.00 0.00 0.00 45 1015.9
20240619075700 87 69 1.0 4.0 0.00 0.00 0.00 49 1015.7
20240619074800 87 68 1.0 2.0 0.00 0.00 0.00 48 1015.6
20240619073900 84 69 0.0 2.0 0.00 0.00 0.00 49 1015.4
20240619073000 83 69 0.0 2.0 0.00 0.00 0.00 52 1015.6
20240619072103 84 0 0.0 0.0 0.00 0.00 0.00 52 1015.6
20240619065400 80 68 0.0 2.0 0.00 0.00 0.00 57 1015.7
20240619064501 79 68 0.0 2.0 0.00 0.00 0.00 58 1015.7
20240619063601 77 69 0.0 2.0 0.00 0.00 0.00 60 1015.9
20240619062700 77 68 0.0 2.0 0.00 0.00 0.00 62 1015.7
20240619061802 76 69 0.0 2.0 0.00 0.00 0.00 62 1015.6
20240619060900 76 69 1.0 2.0 0.00 0.00 0.00 62 1015.6
20240619055100 73 68 0.0 2.0 0.00 0.00 0.00 66 1015.3
20240619054200 73 68 0.0 2.0 0.00 0.00 0.00 69 1015.3
20240619053301 72 68 0.0 2.0 0.00 0.00 0.00 69 1015.5
20240619052401 72 68 0.0 2.0 0.00 0.00 0.00 68 1015.6
20240619050600 71 68 0.0 2.0 0.00 0.00 0.00 70 1015.6
20240619045701 70 0 0.0 0.0 0.00 0.00 0.00 69 1015.4
20240619043001 69 69 0.0 2.0 0.00 0.00 0.00 64 1015.8
20240619042101 68 68 1.0 2.0 0.00 0.00 0.00 68 1015.5
20240619041201 68 0 0.0 0.0 0.00 0.00 0.00 69 1015.6
20240619040301 68 68 0.0 2.0 0.00 0.00 0.00 70 1015.3
20240619033601 69 80 0.0 2.0 0.00 0.00 0.00 69 1015.3
20240619032701 68 90 0.0 2.0 0.00 0.00 0.00 70 1015.4
20240619031801 69 90 0.0 2.0 0.00 0.00 0.00 68 1015.5
20240619030901 69 90 0.0 2.0 0.00 0.00 0.00 67 1015.2
20240619025101 68 68 1.0 2.0 0.00 0.00 0.00 71 1015.3
20240619024202 68 68 0.0 2.0 0.00 0.00 0.00 71 1015.1
20240619023301 68 68 0.0 2.0 0.00 0.00 0.00 70 1015.2
20240619022402 69 69 1.0 2.0 0.00 0.00 0.00 70 1015.1
20240619021501 69 69 0.0 2.0 0.00 0.00 0.00 69 1015.5
20240619020601 69 68 0.0 2.0 0.00 0.00 0.00 67 1015.7
20240619015701 70 68 0.0 2.0 0.00 0.00 0.00 67 1015.9
20240619013901 71 68 0.0 2.0 0.00 0.00 0.00 65 1016.1
20240619012102 72 49 0.0 4.0 0.00 0.00 0.00 61 1016.1
20240619011201 72 44 2.0 4.0 0.00 0.00 0.00 60 1016.0
20240619010301 72 47 2.0 4.0 0.00 0.00 0.00 61 1016.0
20240619005401 72 45 2.0 4.0 0.00 0.00 0.00 61 1016.2
20240619004501 72 48 2.0 4.0 0.00 0.00 0.00 61 1016.2
20240619002701 72 53 2.0 4.0 0.00 0.00 0.00 61 1016.4
20240619001801 72 47 2.0 4.0 0.00 0.00 0.00 61 1016.4
20240619000002 72 62 2.0 2.0 0.00 0.00 0.00 62 1016.6
20240618235101 72 63 2.0 4.0 0.00 0.00 0.00 62 1016.3
20240618234201 72 64 2.0 2.0 0.00 0.00 0.00 63 1016.3
20240618232402 72 69 1.0 2.0 0.00 0.00 0.00 64 1016.5
20240618231502 71 69 0.0 2.0 0.00 0.00 0.00 64 1016.4
20240618230601 71 68 0.0 2.0 0.00 0.00 0.00 67 1016.4
20240618224801 72 0 0.0 0.0 0.00 0.00 0.00 66 1016.4
20240618223901 72 0 0.0 0.0 0.00 0.00 0.00 66 1016.4
20240618223001 72 0 0.0 0.0 0.00 0.00 0.00 65 1016.3
20240618221201 74 0 0.0 0.0 0.00 0.00 0.00 64 1016.2
20240618215415 76 68 0.0 2.0 0.00 0.00 0.00 61 1015.9
20240618214515 76 64 0.0 2.0 0.00 0.00 0.00 59 1015.9
20240618213616 76 59 1.0 4.0 0.00 0.00 0.00 60 1016.0
20240618212716 76 66 1.0 2.0 0.00 0.00 0.00 61 1015.8
20240618211815 76 63 1.0 2.0 0.00 0.00 0.00 61 1015.9